Relevés horaires Chievres (Belgique)


Relevés horaires à Chievres - Samedi 02 Avr. 2022
Heure UTC1 Température [°C] Vent [km/h] Hum. [%] Pres.4 [hPa] Visi. [Km] Nébu. [octa] Préc.5 [mm] Cond.
2m. Res. Ros. Dir.2 Vit. Moy. Raf.3
23:00 -0.5 -2.4 -3.6 N 5.6 -- 7.4 79 1023.7(1.1/3h) 20 -- -- --
22:00 0.0 -1.9 -3.6 N 5.6 -- 7.4 77 1023.2(1.5/3h) 20 -- -- --
21:00 0.5 0.5 -3.4 N 3.7 -- 14.8 75 1022.7(1.8/3h) 20 -- -- --
20:00 2.9 0.8 -3.7 N 7.4 -- 11.1 62 1022.3(2.0/3h) 20 -- -- --
19:00 3.2 1.8 -3.2 N 5.6 -- 14.8 63 1021.6(1.7/3h) 20 -- -- --
18:00 4.3 1.6 -4.1 N 11.1 -- 20.4 54 1020.7(1.4/3h) 20 -- -- --
17:00 5.2 3.1 -3.6 N 9.3 -- 14.8 53 1020.2(1.0/3h) 20 -- -- --
16:00 4.9 2.7 -5.1 NNE 9.3 -- 18.5 48 1019.7(0.4/3h) 20 -- -- --
15:00 5.6 3.2 -4.9 NNE 11.1 -- 20.4 47 1019.2(0.2/3h) 20 -- -- --
14:00 5.8 3.1 -4.2 NNE 13.0 -- 18.5 49 1019.1(0.2/3h) 20 -- -- --
13:00 4.6 1.6 -4.9 NE 13.0 -- 20.4 50 1019.2(0.2/3h) 20 -- -- --
12:00 4.6 1.9 -4.5 N 11.1 -- 22.2 52 1019.1(0.3/3h) 20 -- -- --
11:00 5.4 2.3 -4.3 NE 14.8 -- 22.2 50 1018.8(0.6/3h) 20 -- -- --
10:00 4.7 1.7 -3.9 NNE 13.0 -- 22.2 54 1019(1.5/3h) 18 -- -- --
09:00 4.2 1.1 -3.4 N 13.0 -- 20.4 58 1018.7(1.8/3h) 20 -- -- --
08:00 2.2 -0.9 -4.6 N 11.1 -- 16.7 61 1018.3(2.1/3h) 20 -- -- --
07:00 0.6 -1.2 -3.6 N 5.6 -- 11.1 73 1017.7(1.8/3h) 20 -- -- --
06:00 0.3 -2.8 -3.8 N 9.3 -- 16.7 74 1017(1.4/3h) 20 -- trace/12h
--
05:00 0.3 -2.8 -2.8 N 9.3 -- 13.0 80 1016.2(0.8/3h) 20 -- -- --
04:00 0.1 -3 -2.7 N 9.3 -- 13.0 81 1015.7(0.3/3h) 20 -- -- --
03:00 0.5 -2.5 -2.6 N 9.3 -- 16.7 80 1015.5(0.0/3h) 20 -- -- --
02:00 0.5 -2.5 -2.6 N 9.3 -- 13.0 80 1015.3(0.0/3h) 20 -- -- --
01:00 1.3 -1.6 -2.6 N 9.3 -- 16.7 75 1015.2(0.3/3h) 20 -- -- --
00:00 2.6 -0.8 -3.8 N 13.0 -- 22.2 63 1015.5(0.6/3h) 20 -- trace/6h
NA

1 Coordinated Universal Time. Actuellement il est 16:00 locale et 15:00 UTC.

2 Le vent souffle depuis la direction indiquée vers la direction oposée.

3 Les rafales max. sont disponible 40 min après l'heure du relevé.

4 Pour les stations d'altitude (plus de 600m) le géopotentiel du niveau le plus proche de la pression obligatoire est indiqué.

5 Les stations disposant d'un diffuseur peuvent indiquer "trace". Cela signifie que des précipitations ont touchés le sol mais que la quantité est inférieure à 0.1 mm.

Récapitulatif de la journée
Température [°C] Vent [km/h] Ensoleillement4 [h] Precipitations totale5 [mm] Pression [Hpa]
Min1 Max.2 Moy.3 Max. Min Max.
0.0 6.3 0 22.2 0 h 0 min 0 1015.2 1023.7

1 Température minimale relevée entre 18:00 UTC la veille et 18:00 UTC le jour donné.

2 Température maximale relevée entre 06:00 UTC le jour donné et 06:00 UTC le lendemain.

3 Vent moyen de la journée basé sur les relevés horaires.

4 Ensoleillement en heures relevé entre 06:00 UTC la veille et 06:00 UTC le jour donné.

5 Précipitations totales tombées entre 06:00 UTC la jour donné et 06:00 UTC le lendemain.

Graphiques horaires